createdAt,value
2023-04-27T00:02:42.827Z,16.10
2023-04-27T00:05:32.234Z,16.10
2023-04-27T00:08:20.793Z,16.00
2023-04-27T00:11:09.263Z,16.00
2023-04-27T00:13:59.132Z,15.90
2023-04-27T00:16:47.632Z,15.80
2023-04-27T00:19:36.156Z,15.60
2023-04-27T00:22:24.593Z,15.60
2023-04-27T00:25:13.153Z,15.50
2023-04-27T00:28:01.737Z,15.40
2023-04-27T00:30:54.359Z,15.30
2023-04-27T00:33:42.930Z,15.50
2023-04-27T00:36:31.488Z,15.70
2023-04-27T00:39:20.041Z,15.40
2023-04-27T00:42:11.500Z,15.30
2023-04-27T00:45:00.034Z,15.30
2023-04-27T00:47:50.673Z,15.40
2023-04-27T00:50:39.588Z,15.70
2023-04-27T00:53:28.420Z,15.30
2023-04-27T00:56:16.885Z,15.30
2023-04-27T00:59:05.716Z,15.40
2023-04-27T01:01:55.246Z,15.40
2023-04-27T01:04:45.485Z,15.40
2023-04-27T01:07:34.537Z,15.50
2023-04-27T01:10:23.175Z,15.60
2023-04-27T01:13:11.907Z,15.60
2023-04-27T01:16:00.524Z,15.50
2023-04-27T01:18:49.051Z,15.60
2023-04-27T01:21:38.903Z,15.30
2023-04-27T01:24:28.798Z,15.30
2023-04-27T01:27:17.217Z,15.30
2023-04-27T01:30:06.678Z,15.40
2023-04-27T01:32:55.307Z,15.30
2023-04-27T01:35:43.862Z,15.40
2023-04-27T01:38:33.664Z,15.40
2023-04-27T01:41:23.953Z,15.40
2023-04-27T01:44:13.057Z,15.40
2023-04-27T01:47:01.842Z,15.30
2023-04-27T01:49:51.148Z,15.30
2023-04-27T01:52:39.658Z,15.20
2023-04-27T01:55:28.235Z,15.30
2023-04-27T01:58:18.134Z,15.20
2023-04-27T02:01:06.791Z,15.10
2023-04-27T02:03:55.409Z,15.00
2023-04-27T02:09:32.735Z,14.90
2023-04-27T02:12:21.501Z,14.90
2023-04-27T02:15:11.807Z,14.90
2023-04-27T02:18:00.335Z,14.90
2023-04-27T02:20:48.810Z,14.90
2023-04-27T02:23:37.314Z,14.90
2023-04-27T02:29:18.592Z,14.80
2023-04-27T02:32:09.094Z,14.90
2023-04-27T02:34:57.639Z,14.90
2023-04-27T02:37:46.109Z,14.90
2023-04-27T02:40:34.912Z,14.90
2023-04-27T02:43:23.460Z,14.90
2023-04-27T02:46:12.074Z,14.90
2023-04-27T02:49:01.947Z,14.90
2023-04-27T02:51:50.408Z,14.80
2023-04-27T02:54:39.410Z,14.80
2023-04-27T02:57:28.689Z,14.80
2023-04-27T03:00:18.910Z,14.70
2023-04-27T03:03:07.785Z,14.80
2023-04-27T03:05:57.687Z,14.70
2023-04-27T03:08:46.097Z,14.70
2023-04-27T03:11:36.204Z,14.70
2023-04-27T03:14:25.964Z,14.80
2023-04-27T03:17:14.450Z,14.80
2023-04-27T03:20:04.908Z,14.70
2023-04-27T03:22:54.881Z,14.80
2023-04-27T03:25:43.407Z,14.80
2023-04-27T03:28:31.844Z,14.70
2023-04-27T03:31:20.523Z,14.70
2023-04-27T03:34:09.030Z,14.70
2023-04-27T03:36:57.810Z,14.70
2023-04-27T03:39:47.654Z,14.50
2023-04-27T03:42:36.081Z,14.50
2023-04-27T03:45:24.718Z,14.40
2023-04-27T03:48:13.379Z,14.50
2023-04-27T03:51:02.494Z,14.50
2023-04-27T03:53:51.210Z,14.40
2023-04-27T03:56:41.118Z,14.40
2023-04-27T03:59:30.857Z,14.30
2023-04-27T04:02:19.505Z,14.30
2023-04-27T04:05:08.939Z,14.40
2023-04-27T04:10:46.603Z,13.90
2023-04-27T04:13:36.786Z,13.70
2023-04-27T04:16:25.440Z,13.40
2023-04-27T04:19:14.191Z,13.30
2023-04-27T04:22:03.042Z,13.30
2023-04-27T04:24:51.793Z,13.30
2023-04-27T04:27:40.663Z,13.40
2023-04-27T04:30:30.699Z,13.10
2023-04-27T04:33:19.539Z,13.00
2023-04-27T04:36:08.608Z,12.80
2023-04-27T04:38:57.438Z,12.30
2023-04-27T04:41:45.943Z,12.20
2023-04-27T04:44:34.394Z,12.20
2023-04-27T04:47:24.284Z,12.30
2023-04-27T04:50:13.238Z,12.30
2023-04-27T04:53:01.793Z,12.30
2023-04-27T04:55:50.372Z,12.30
2023-04-27T04:58:39.166Z,12.40
2023-04-27T05:01:27.705Z,12.00
2023-04-27T05:04:18.772Z,11.90
2023-04-27T05:07:07.596Z,12.10
2023-04-27T05:09:56.408Z,12.20
2023-04-27T05:12:45.010Z,12.20
2023-04-27T05:15:33.441Z,12.40
2023-04-27T05:18:21.931Z,12.70
2023-04-27T05:21:17.765Z,12.90
2023-04-27T05:24:06.742Z,13.00
2023-04-27T05:26:55.646Z,12.80
2023-04-27T05:29:44.382Z,12.90
2023-04-27T05:32:33.832Z,13.10
2023-04-27T05:35:22.357Z,13.20
2023-04-27T06:03:46.329Z,13.90
2023-04-27T06:06:35.599Z,14.10
2023-04-27T06:09:23.968Z,14.20
2023-04-27T06:12:13.920Z,14.30
2023-04-27T06:23:34.361Z,14.70
2023-04-27T07:14:24.024Z,16.40
2023-04-27T07:17:12.548Z,16.50
2023-04-27T07:20:03.920Z,16.80
2023-04-27T07:22:52.416Z,16.80
2023-04-27T07:25:41.376Z,16.90
2023-04-27T07:28:30.386Z,17.10
2023-04-27T07:31:19.011Z,17.20
2023-04-27T07:34:07.604Z,17.30
2023-04-27T07:36:57.533Z,17.40
2023-04-27T07:39:46.655Z,17.60
2023-04-27T07:42:35.180Z,17.70
2023-04-27T07:45:31.866Z,17.80
2023-04-27T07:48:20.443Z,18.00
2023-04-27T07:51:09.069Z,18.00
2023-04-27T07:53:59.030Z,18.10
2023-04-27T07:59:36.604Z,18.30
2023-04-27T08:02:25.249Z,18.30
2023-04-27T08:05:14.419Z,18.30
2023-04-27T08:08:03.648Z,18.30
2023-04-27T08:10:53.641Z,18.20
2023-04-27T08:13:42.088Z,18.20
2023-04-27T08:16:31.373Z,18.10
2023-04-27T08:24:58.428Z,17.90
2023-04-27T08:27:48.365Z,17.90
2023-04-27T08:30:37.011Z,18.00
2023-04-27T08:33:25.506Z,17.90
2023-04-27T08:36:13.950Z,18.00
2023-04-27T08:39:02.443Z,18.10
2023-04-27T08:41:50.986Z,18.20
2023-04-27T08:44:41.486Z,18.30
2023-04-27T08:47:41.876Z,18.30
2023-04-27T08:50:31.678Z,18.50
2023-04-27T08:53:21.473Z,18.50
2023-04-27T08:56:10.201Z,18.50
2023-04-27T08:58:59.805Z,18.60
2023-04-27T09:01:51.123Z,18.70
2023-04-27T09:04:40.888Z,18.70
2023-04-27T09:07:29.628Z,18.80
2023-04-27T09:10:18.071Z,18.90
2023-04-27T09:13:06.626Z,19.00
2023-04-27T09:15:55.166Z,19.10
2023-04-27T09:18:45.512Z,19.10
2023-04-27T09:21:34.170Z,19.30
2023-04-27T09:24:22.687Z,19.30
2023-04-27T09:29:59.997Z,19.40
2023-04-27T09:32:53.928Z,19.40
2023-04-27T09:35:46.698Z,19.50
2023-04-27T09:38:35.597Z,19.60
2023-04-27T09:41:24.165Z,19.80
2023-04-27T09:44:12.646Z,19.90
2023-04-27T09:47:02.184Z,19.90
2023-04-27T09:49:52.218Z,20.10
2023-04-27T09:52:42.201Z,20.10
2023-04-27T09:55:34.442Z,20.10
2023-04-27T09:58:44.963Z,20.00
2023-04-27T10:01:40.819Z,20.10
2023-04-27T10:04:54.951Z,20.20
2023-04-27T10:07:47.032Z,20.30
2023-04-27T10:10:44.731Z,20.40
2023-04-27T10:13:33.278Z,20.50
2023-04-27T10:16:22.746Z,20.60
2023-04-27T10:19:12.088Z,20.80
2023-04-27T10:22:03.662Z,20.80
2023-04-27T10:24:53.770Z,20.80
2023-04-27T10:27:42.714Z,21.00
2023-04-27T10:30:34.838Z,21.10
2023-04-27T10:33:24.282Z,21.20
2023-04-27T10:36:16.189Z,21.20
2023-04-27T10:39:05.447Z,21.40
2023-04-27T10:41:56.939Z,21.50
2023-04-27T10:44:55.898Z,21.70
2023-04-27T10:47:46.073Z,21.60
2023-04-27T10:50:35.146Z,21.70
2023-04-27T10:53:23.688Z,21.80
2023-04-27T10:56:12.380Z,21.80
2023-04-27T10:59:05.367Z,21.90
2023-04-27T11:01:53.905Z,22.00
2023-04-27T11:04:43.085Z,22.00
2023-04-27T11:07:32.426Z,22.30
2023-04-27T11:10:21.152Z,22.30
2023-04-27T11:13:11.441Z,22.30
2023-04-27T11:16:01.703Z,22.40
2023-04-27T11:18:50.268Z,22.40
2023-04-27T11:24:27.987Z,22.60
2023-04-27T11:27:17.644Z,22.80
2023-04-27T11:30:08.986Z,22.90
2023-04-27T11:32:59.087Z,23.10
2023-04-27T11:35:47.597Z,23.30
2023-04-27T11:38:36.295Z,23.40
2023-04-27T11:41:24.839Z,23.60
2023-04-27T11:44:13.877Z,23.80
2023-04-27T11:47:02.553Z,23.90
2023-04-27T11:49:53.875Z,24.00
2023-04-27T11:58:20.234Z,24.20
2023-04-27T12:01:10.384Z,24.40
2023-04-27T12:04:01.549Z,24.50
2023-04-27T12:06:52.370Z,24.70
2023-04-27T12:09:41.008Z,24.90
2023-04-27T12:12:29.717Z,25.00
2023-04-27T12:15:18.397Z,25.10
2023-04-27T12:18:07.489Z,25.30
2023-04-27T12:20:56.018Z,25.30
2023-04-27T12:23:46.103Z,25.00
2023-04-27T12:26:36.760Z,25.00
2023-04-27T12:32:14.235Z,25.50
2023-04-27T12:35:02.730Z,25.60
2023-04-27T12:37:52.411Z,25.60
2023-04-27T12:40:42.348Z,25.50
2023-04-27T12:43:30.811Z,25.40
2023-04-27T12:46:19.392Z,25.30
2023-04-27T12:49:08.133Z,25.40
2023-04-27T12:51:57.997Z,25.50
2023-04-27T12:54:46.696Z,25.40
2023-04-27T12:57:36.631Z,25.40
2023-04-27T13:00:26.169Z,25.50
2023-04-27T13:03:14.958Z,25.50
2023-04-27T13:06:03.601Z,25.70
2023-04-27T13:08:52.520Z,26.00
2023-04-27T13:17:22.136Z,26.70
2023-04-27T13:20:11.860Z,26.80
2023-04-27T13:42:44.629Z,26.60
2023-04-27T13:45:33.467Z,26.80
2023-04-27T13:48:23.463Z,26.70
2023-04-27T13:51:12.017Z,26.70
2023-04-27T13:54:01.125Z,26.80
2023-04-27T13:56:49.686Z,26.70
2023-04-27T13:59:38.183Z,26.70
2023-04-27T14:02:26.734Z,26.70
2023-04-27T14:05:16.827Z,26.60
2023-04-27T14:08:05.769Z,26.70
2023-04-27T14:10:54.463Z,26.70
2023-04-27T14:13:42.927Z,26.70
2023-04-27T14:16:31.522Z,26.70
2023-04-27T14:19:20.638Z,26.50
2023-04-27T14:30:37.144Z,24.90
2023-04-27T14:33:25.701Z,24.40
2023-04-27T14:36:15.085Z,24.10
2023-04-27T14:39:06.905Z,23.80
2023-04-27T14:41:55.732Z,23.70
2023-04-27T14:44:44.232Z,23.60
2023-04-27T14:47:32.884Z,23.40
2023-04-27T14:50:21.504Z,22.90
2023-04-27T14:53:10.265Z,23.20
2023-04-27T14:56:00.227Z,23.10
2023-04-27T14:58:48.796Z,23.20
2023-04-27T15:01:37.524Z,23.20
2023-04-27T15:04:26.713Z,23.20
2023-04-27T15:07:15.450Z,23.40
2023-04-27T15:10:04.170Z,23.50
2023-04-27T15:12:54.054Z,23.50
2023-04-27T15:15:45.472Z,23.40
2023-04-27T15:18:35.342Z,23.40
2023-04-27T15:21:23.842Z,23.30
2023-04-27T15:24:12.522Z,23.20
2023-04-27T15:27:01.777Z,23.20
2023-04-27T15:29:51.590Z,23.20
2023-04-27T15:32:40.264Z,23.10
2023-04-27T15:35:28.881Z,23.10
2023-04-27T15:38:17.947Z,23.20
2023-04-27T15:41:06.562Z,23.20
2023-04-27T15:43:55.240Z,23.20
2023-04-27T15:46:45.225Z,23.10
2023-04-27T15:49:37.797Z,23.00
2023-04-27T15:52:34.893Z,22.90
2023-04-27T15:55:23.759Z,22.80
2023-04-27T15:58:12.381Z,22.80
2023-04-27T16:01:01.268Z,22.80
2023-04-27T16:03:51.250Z,22.60
2023-04-27T16:06:40.065Z,22.50
2023-04-27T16:09:29.078Z,22.40
2023-04-27T16:12:17.755Z,22.40
2023-04-27T16:15:09.986Z,22.40
2023-04-27T16:17:59.648Z,22.40
2023-04-27T16:20:49.868Z,22.40
2023-04-27T16:23:38.367Z,22.40
2023-04-27T16:26:28.305Z,22.40
2023-04-27T16:29:16.993Z,22.40
2023-04-27T16:32:05.951Z,22.30
2023-04-27T16:34:54.526Z,22.60
2023-04-27T16:37:44.456Z,22.20
2023-04-27T16:40:32.990Z,22.20
2023-04-27T16:43:21.486Z,22.10
2023-04-27T16:46:13.344Z,22.00
2023-04-27T16:49:02.254Z,22.00
2023-04-27T16:51:51.267Z,21.90
2023-04-27T16:54:41.198Z,21.90
2023-04-27T16:57:29.981Z,21.90
2023-04-27T17:00:18.753Z,21.90
2023-04-27T17:03:07.375Z,21.80
2023-04-27T17:05:55.991Z,21.70
2023-04-27T17:08:44.619Z,21.80
2023-04-27T17:11:34.562Z,21.60
2023-04-27T17:14:24.245Z,21.60
2023-04-27T17:17:13.058Z,21.60
2023-04-27T17:20:02.047Z,21.60
2023-04-27T17:22:50.853Z,21.60
2023-04-27T17:25:39.423Z,21.50
2023-04-27T17:28:29.901Z,21.50
2023-04-27T17:31:18.469Z,21.50
2023-04-27T17:34:07.147Z,21.40
2023-04-27T17:36:55.651Z,21.40
2023-04-27T17:39:44.189Z,21.30
2023-04-27T17:42:32.782Z,21.30
2023-04-27T17:45:22.934Z,21.30
2023-04-27T17:48:11.684Z,21.20
2023-04-27T17:51:00.281Z,21.10
2023-04-27T17:53:48.813Z,21.10
2023-04-27T17:56:37.325Z,21.10
2023-04-27T17:59:25.977Z,21.10
2023-04-27T18:02:16.298Z,21.00
2023-04-27T18:05:05.578Z,20.90
2023-04-27T18:07:54.441Z,20.90
2023-04-27T18:10:42.954Z,20.80
2023-04-27T19:07:09.116Z,20.20
2023-04-27T19:09:58.928Z,20.10
2023-04-27T19:12:47.421Z,20.10
2023-04-27T19:15:35.996Z,20.10
2023-04-27T19:18:24.642Z,20.00
2023-04-27T19:21:13.256Z,20.00
2023-04-27T19:24:01.913Z,20.00
2023-04-27T19:26:52.029Z,20.00
2023-04-27T19:29:51.726Z,19.90
2023-04-27T19:32:40.359Z,19.90
2023-04-27T19:35:28.940Z,19.90
2023-04-27T19:38:17.493Z,19.90
2023-04-27T19:41:07.061Z,19.90
2023-04-27T19:43:56.877Z,19.90
2023-04-27T19:46:45.626Z,19.80
2023-04-27T19:49:34.401Z,19.80
2023-04-27T19:52:22.936Z,19.80
2023-04-27T19:55:11.803Z,19.70
2023-04-27T19:58:00.364Z,19.70
2023-04-27T20:00:50.403Z,19.70
2023-04-27T20:03:40.073Z,19.60
2023-04-27T20:06:29.196Z,19.60
2023-04-27T20:09:17.750Z,19.60
2023-04-27T20:51:38.344Z,19.20
2023-04-27T20:54:26.851Z,19.20
2023-04-27T20:57:15.537Z,19.10
2023-04-27T21:00:04.867Z,19.00
2023-04-27T21:19:48.610Z,18.90
